BKPR/PRN METAR and TAF weather

Enter ICAO airport designator
Station Type Date Time Source
BKPR METAR 2020/04/06 08:30 UTC NOAA

BKPR 060830Z 05007KT 020V080 9999 FEW090 11/M09 Q1028 NOSIG


Station Type Date Time Source
BKPR Decoded METAR 2020/04/06 08:30 UTC NOAA

Station name not available
Apr 06, 2020 - 04:30 AM EDT / 2020.04.06 0830 UTC
Wind: from the NE (050 degrees) at 8 MPH (7 KT) (direction variable):0
Visibility: greater than 7 mile(s):0
Sky conditions: mostly clear
Temperature: 51 F (11 C)
Dew Point: 15 F (-9 C)
Relative Humidity: 23%
Pressure (altimeter): 30.36 in. Hg (1028 hPa)
ob: BKPR 060830Z 05007KT 020V080 9999 FEW090 11/M09 Q1028 NOSIG
cycle: 8

Station Type Date Time Source
BKPR TAF 2020/04/06 06:30 UTC NOAA

TAF BKPR 060630Z 0606/0706 02008KT 9999 SCT040
TEMPO 0612/0616 04015G25KT

Example: see airport list